createdAt,value
2023-04-15T00:01:37.251Z,4.67
2023-04-15T00:04:39.972Z,5.25
2023-04-15T00:07:42.437Z,5.32
2023-04-15T00:10:46.730Z,4.75
2023-04-15T00:13:49.398Z,5.30
2023-04-15T00:16:56.275Z,4.70
2023-04-15T00:20:00.064Z,6.45
2023-04-15T00:23:04.136Z,5.25
2023-04-15T00:29:09.242Z,6.00
2023-04-15T00:32:11.576Z,5.95
2023-04-15T00:35:16.598Z,5.80
2023-04-15T00:38:18.967Z,7.55
2023-04-15T00:41:23.053Z,7.03
2023-04-15T00:44:25.790Z,7.97
2023-04-15T00:50:32.196Z,5.72
2023-04-15T00:53:34.773Z,5.72
2023-04-15T00:56:38.689Z,6.82
2023-04-15T00:59:41.746Z,5.85
2023-04-15T01:02:44.238Z,5.57
2023-04-15T01:05:47.526Z,5.47
2023-04-15T01:08:50.636Z,6.68
2023-04-15T01:11:53.823Z,8.02
2023-04-15T01:14:56.777Z,6.50
2023-04-15T01:17:59.615Z,5.03
2023-04-15T01:21:05.329Z,6.30
2023-04-15T01:24:10.532Z,6.75
2023-04-15T01:27:12.926Z,6.10
2023-04-15T01:30:15.683Z,7.37
2023-04-15T01:33:18.035Z,8.68
2023-04-15T01:36:21.364Z,7.78
2023-04-15T01:39:23.714Z,9.77
2023-04-15T01:42:27.646Z,11.05
2023-04-15T01:45:30.355Z,10.13
2023-04-15T01:48:33.478Z,8.30
2023-04-15T01:51:35.802Z,9.40
2023-04-15T01:54:38.540Z,7.65
2023-04-15T01:57:41.241Z,8.77
2023-04-15T02:00:44.068Z,8.55
2023-04-15T02:03:47.885Z,10.02
2023-04-15T02:09:53.344Z,9.05
2023-04-15T02:12:55.630Z,8.50
2023-04-15T02:15:59.714Z,10.57
2023-04-15T02:22:05.281Z,8.77
2023-04-15T02:25:08.696Z,8.70
2023-04-15T02:28:11.413Z,8.13
2023-04-15T02:31:14.515Z,16.92
2023-04-15T02:34:17.104Z,10.57
2023-04-15T02:37:20.914Z,8.63
2023-04-15T02:40:23.560Z,8.55
2023-04-15T02:43:26.473Z,8.75
2023-04-15T02:46:28.947Z,8.60
2023-04-15T02:49:31.743Z,8.98
2023-04-15T02:52:34.053Z,8.40
2023-04-15T02:55:36.990Z,9.63
2023-04-15T02:58:40.688Z,7.35
2023-04-15T03:04:46.142Z,10.70
2023-04-15T03:07:48.725Z,10.30
2023-04-15T03:10:52.859Z,9.18
2023-04-15T03:13:55.713Z,9.90
2023-04-15T03:16:59.582Z,11.65
2023-04-15T03:20:06.267Z,7.50
2023-04-15T03:23:10.130Z,9.02
2023-04-15T03:26:26.322Z,8.80
2023-04-15T03:29:28.783Z,9.35
2023-04-15T03:32:31.724Z,10.90
2023-04-15T03:35:34.830Z,9.18
2023-04-15T03:38:37.431Z,9.38
2023-04-15T03:41:39.703Z,10.25
2023-04-15T03:44:42.445Z,7.90
2023-04-15T03:47:44.923Z,10.55
2023-04-15T03:50:48.368Z,8.68
2023-04-15T03:53:51.228Z,9.70
2023-04-15T03:56:53.931Z,9.03
2023-04-15T03:59:56.321Z,7.65
2023-04-15T04:02:59.120Z,8.73
2023-04-15T04:06:02.003Z,11.15
2023-04-15T04:09:04.426Z,8.23
2023-04-15T04:12:07.318Z,7.45
2023-04-15T04:15:10.005Z,8.80
2023-04-15T04:18:13.245Z,9.00
2023-04-15T04:21:15.658Z,9.27
2023-04-15T04:24:18.262Z,11.57
2023-04-15T04:27:20.795Z,11.48
2023-04-15T04:30:23.457Z,11.50
2023-04-15T04:33:26.194Z,9.80
2023-04-15T04:36:28.784Z,9.63
2023-04-15T04:39:31.253Z,8.90
2023-04-15T04:42:33.937Z,10.07
2023-04-15T04:45:36.360Z,9.48
2023-04-15T04:48:39.400Z,6.37
2023-04-15T04:51:41.951Z,7.37
2023-04-15T04:54:44.578Z,6.15
2023-04-15T04:57:47.375Z,6.25
2023-04-15T05:00:50.019Z,6.90
2023-04-15T05:03:52.404Z,7.00
2023-04-15T05:06:55.064Z,6.53
2023-04-15T05:09:57.429Z,10.50
2023-04-15T05:13:00.099Z,7.22
2023-04-15T05:16:02.626Z,6.53
2023-04-15T05:19:05.244Z,7.93
2023-04-15T05:22:08.249Z,9.65
2023-04-15T05:25:10.905Z,8.02
2023-04-15T05:28:13.314Z,6.32
2023-04-15T05:31:16.562Z,6.22
2023-04-15T05:34:18.995Z,6.75
2023-04-15T05:37:22.349Z,7.30
2023-04-15T05:40:24.659Z,6.47
2023-04-15T05:43:27.240Z,8.13
2023-04-15T05:46:29.596Z,5.60
2023-04-15T05:49:32.192Z,6.87
2023-04-15T05:52:34.533Z,7.00
2023-04-15T05:55:37.168Z,7.87
2023-04-15T05:58:39.504Z,6.15
2023-04-15T06:01:42.124Z,6.28
2023-04-15T06:04:44.742Z,7.50
2023-04-15T06:07:48.581Z,7.97
2023-04-15T06:10:51.524Z,6.57
2023-04-15T06:13:53.904Z,4.95
2023-04-15T06:16:56.462Z,6.12
2023-04-15T06:19:58.787Z,6.25
2023-04-15T06:23:01.441Z,6.53
2023-04-15T06:26:03.816Z,5.50
2023-04-15T06:29:06.752Z,6.80
2023-04-15T06:32:09.157Z,6.18
2023-04-15T06:35:11.804Z,7.25
2023-04-15T06:38:14.690Z,7.60
2023-04-15T06:41:18.147Z,6.53
2023-04-15T06:44:20.852Z,8.30
2023-04-15T06:47:23.496Z,6.20
2023-04-15T06:50:26.081Z,5.10
2023-04-15T06:53:28.725Z,6.50
2023-04-15T06:56:31.140Z,5.68
2023-04-15T06:59:33.788Z,7.53
2023-04-15T07:02:36.156Z,7.43
2023-04-15T07:05:39.022Z,7.78
2023-04-15T07:08:41.880Z,6.45
2023-04-15T07:11:44.477Z,4.90
2023-04-15T07:14:46.897Z,5.70
2023-04-15T07:17:50.007Z,6.60
2023-04-15T07:20:52.637Z,6.65
2023-04-15T07:23:55.446Z,5.47
2023-04-15T07:27:00.867Z,5.15
2023-04-15T07:30:04.426Z,5.18
2023-04-15T07:33:07.217Z,4.03
2023-04-15T07:36:10.593Z,4.18
2023-04-15T07:39:12.990Z,5.77
2023-04-15T07:42:15.782Z,5.00
2023-04-15T07:45:18.080Z,5.00
2023-04-15T07:48:21.184Z,3.72
2023-04-15T07:51:23.568Z,4.97
2023-04-15T07:54:26.438Z,5.22
2023-04-15T07:57:28.921Z,4.53
2023-04-15T08:00:32.098Z,4.25
2023-04-15T08:03:35.206Z,2.90
2023-04-15T08:06:40.007Z,3.30
2023-04-15T08:09:42.763Z,3.12
2023-04-15T08:12:49.056Z,3.20
2023-04-15T08:16:13.779Z,3.05
2023-04-15T08:22:19.669Z,2.78
2023-04-15T08:25:23.476Z,2.55
2023-04-15T08:28:26.303Z,2.85
2023-04-15T08:31:29.970Z,2.45
2023-04-15T08:37:34.804Z,2.62
2023-04-15T08:40:42.871Z,2.78
2023-04-15T08:43:53.384Z,1.85
2023-04-15T08:46:57.305Z,2.00
2023-04-15T08:50:01.832Z,2.28
2023-04-15T08:53:04.817Z,1.83
2023-04-15T08:56:10.210Z,1.85
2023-04-15T08:59:13.293Z,2.60
2023-04-15T09:02:16.068Z,3.17
2023-04-15T09:05:18.723Z,1.77
2023-04-15T09:08:21.097Z,1.87
2023-04-15T09:11:23.781Z,2.20
2023-04-15T09:14:26.160Z,2.40
2023-04-15T09:17:28.912Z,2.80
2023-04-15T09:20:39.157Z,1.40
2023-04-15T09:23:56.116Z,1.10
2023-04-15T09:26:58.603Z,1.42
2023-04-15T09:30:01.229Z,1.35
2023-04-15T09:33:08.973Z,2.20
2023-04-15T09:36:11.979Z,1.73
2023-04-15T09:39:14.808Z,2.17
2023-04-15T09:42:24.265Z,1.77
2023-04-15T09:45:29.569Z,1.75
2023-04-15T09:48:32.589Z,1.33
2023-04-15T09:51:35.869Z,2.45
2023-04-15T09:54:38.935Z,7.78
2023-04-15T09:57:41.786Z,3.05
2023-04-15T10:00:45.053Z,4.32
2023-04-15T10:03:48.005Z,2.75
2023-04-15T10:06:51.227Z,5.57
2023-04-15T10:09:54.404Z,4.03
2023-04-15T10:12:57.197Z,4.30
2023-04-15T10:16:07.433Z,1.93
2023-04-15T10:19:11.321Z,2.03
2023-04-15T10:22:15.365Z,2.70
2023-04-15T10:25:19.141Z,4.00
2023-04-15T10:28:25.404Z,1.52
2023-04-15T10:31:28.627Z,3.37
2023-04-15T10:34:32.177Z,6.57
2023-04-15T10:37:39.083Z,2.62
2023-04-15T10:40:42.093Z,1.90
2023-04-15T10:43:52.896Z,1.45
2023-04-15T10:46:58.930Z,1.85
2023-04-15T10:50:02.443Z,1.67
2023-04-15T10:56:08.337Z,1.98
2023-04-15T10:59:11.219Z,1.75
2023-04-15T11:02:14.696Z,1.52
2023-04-15T11:05:18.700Z,1.08
2023-04-15T11:08:54.081Z,1.27
2023-04-15T11:12:10.638Z,0.98
2023-04-15T11:15:45.702Z,1.80
2023-04-15T11:19:00.075Z,1.62
2023-04-15T11:22:10.184Z,1.52
2023-04-15T11:25:26.224Z,2.05
2023-04-15T11:28:30.613Z,1.90
2023-04-15T11:31:33.671Z,3.00
2023-04-15T11:37:39.263Z,2.13
2023-04-15T11:40:45.311Z,1.77
2023-04-15T11:43:50.773Z,1.60
2023-04-15T11:46:53.169Z,1.12
2023-04-15T11:49:55.853Z,1.05
2023-04-15T11:53:06.276Z,1.27
2023-04-15T11:56:18.225Z,1.25
2023-04-15T11:59:20.730Z,0.82
2023-04-15T12:02:32.375Z,2.33
2023-04-15T12:05:35.158Z,1.10
2023-04-15T12:08:55.749Z,0.85
2023-04-15T12:11:58.607Z,2.03
2023-04-15T12:15:01.891Z,1.05
2023-04-15T12:18:05.141Z,2.97
2023-04-15T12:21:12.213Z,1.37
2023-04-15T12:24:15.447Z,1.23
2023-04-15T12:27:17.923Z,1.23
2023-04-15T12:30:20.612Z,1.50
2023-04-15T12:33:23.038Z,1.02
2023-04-15T12:36:25.693Z,3.50
2023-04-15T12:39:31.213Z,2.08
2023-04-15T12:42:33.884Z,1.60
2023-04-15T12:45:36.655Z,1.33
2023-04-15T12:48:40.089Z,1.80
2023-04-15T12:51:42.836Z,1.35
2023-04-15T12:54:45.802Z,1.50
2023-04-15T12:57:49.254Z,1.50
2023-04-15T13:00:51.867Z,1.20
2023-04-15T13:03:54.290Z,2.37
2023-04-15T13:06:56.926Z,2.37
2023-04-15T13:09:59.272Z,2.55
2023-04-15T13:13:02.407Z,4.50
2023-04-15T13:16:05.224Z,2.75
2023-04-15T13:19:08.008Z,1.17
2023-04-15T13:22:10.408Z,2.60
2023-04-15T13:25:13.205Z,1.77
2023-04-15T13:28:15.783Z,1.15
2023-04-15T13:31:18.432Z,1.45
2023-04-15T13:34:21.175Z,4.20
2023-04-15T13:37:28.309Z,1.85
2023-04-15T13:40:32.097Z,1.48
2023-04-15T13:43:34.852Z,1.12
2023-04-15T13:46:39.568Z,2.58
2023-04-15T13:49:42.200Z,1.83
2023-04-15T13:52:44.736Z,1.30
2023-04-15T13:55:47.346Z,1.80
2023-04-15T13:58:49.894Z,2.40
2023-04-15T14:01:53.226Z,2.03
2023-04-15T14:04:55.930Z,5.62
2023-04-15T14:07:59.788Z,3.17
2023-04-15T14:11:02.465Z,5.05
2023-04-15T14:14:05.718Z,3.55
2023-04-15T14:17:11.578Z,3.90
2023-04-15T14:20:15.621Z,2.90
2023-04-15T14:23:19.932Z,3.85
2023-04-15T14:26:22.573Z,4.03
2023-04-15T14:29:25.786Z,4.20
2023-04-15T14:32:28.197Z,2.97
2023-04-15T14:35:31.083Z,3.22
2023-04-15T14:38:38.667Z,3.97
2023-04-15T14:41:41.861Z,6.87
2023-04-15T14:44:44.869Z,4.62
2023-04-15T14:47:47.670Z,5.28
2023-04-15T14:50:50.119Z,5.57
2023-04-15T14:53:52.749Z,5.35
2023-04-15T14:56:56.308Z,4.43
2023-04-15T14:59:59.224Z,3.20
2023-04-15T15:03:02.116Z,4.18
2023-04-15T15:06:04.947Z,4.80
2023-04-15T15:09:07.694Z,4.53
2023-04-15T15:12:10.407Z,3.27
2023-04-15T15:15:28.142Z,2.25
2023-04-15T15:18:31.409Z,1.77
2023-04-15T15:21:33.778Z,3.08
2023-04-15T15:24:36.445Z,2.15
2023-04-15T15:27:38.906Z,1.35
2023-04-15T15:30:41.587Z,2.72
2023-04-15T15:33:44.050Z,1.50
2023-04-15T15:36:46.708Z,1.92
2023-04-15T15:39:50.776Z,1.52
2023-04-15T15:42:53.445Z,4.12
2023-04-15T15:45:56.046Z,1.60
2023-04-15T15:48:58.881Z,1.35
2023-04-15T15:52:01.339Z,1.67
2023-04-15T15:55:04.217Z,1.62
2023-04-15T15:58:06.564Z,3.42
2023-04-15T16:01:09.312Z,2.30
2023-04-15T16:04:12.071Z,3.65
2023-04-15T16:07:15.806Z,3.50
2023-04-15T16:10:18.375Z,2.53
2023-04-15T16:13:21.097Z,4.35
2023-04-15T16:16:24.333Z,3.33
2023-04-15T16:19:26.829Z,3.37
2023-04-15T16:22:29.921Z,3.30
2023-04-15T16:25:32.315Z,4.97
2023-04-15T16:28:34.937Z,4.28
2023-04-15T16:31:39.905Z,4.62
2023-04-15T16:34:42.710Z,3.25
2023-04-15T16:37:45.015Z,2.80
2023-04-15T16:40:47.640Z,2.83
2023-04-15T16:43:49.998Z,3.25
2023-04-15T16:46:52.647Z,4.00
2023-04-15T16:49:57.188Z,6.25
2023-04-15T16:53:02.182Z,2.67
2023-04-15T16:56:04.720Z,2.70
2023-04-15T16:59:25.985Z,2.42
2023-04-15T17:02:29.584Z,3.37
2023-04-15T17:05:32.478Z,3.45
2023-04-15T17:08:34.881Z,3.03
2023-04-15T17:11:41.054Z,4.60
2023-04-15T17:14:43.399Z,3.40
2023-04-15T17:17:46.069Z,3.50
2023-04-15T17:20:49.678Z,3.97
2023-04-15T17:23:52.343Z,4.70
2023-04-15T17:27:09.712Z,5.07
2023-04-15T17:30:18.161Z,5.47
2023-04-15T17:33:56.376Z,4.22
2023-04-15T17:36:45.416Z,4.82
2023-04-15T17:39:47.894Z,3.87
2023-04-15T17:42:50.727Z,6.07
2023-04-15T17:45:53.428Z,5.25
2023-04-15T17:48:57.382Z,3.58
2023-04-15T17:52:00.351Z,4.55
2023-04-15T17:55:03.168Z,5.40
2023-04-15T17:58:05.721Z,5.35
2023-04-15T18:01:08.364Z,4.82
2023-04-15T18:04:12.757Z,5.00
2023-04-15T18:07:15.807Z,5.65
2023-04-15T18:10:18.790Z,5.77
2023-04-15T18:13:21.053Z,5.85
2023-04-15T18:16:23.797Z,12.20
2023-04-15T18:19:26.250Z,4.50
2023-04-15T18:22:28.950Z,6.45
2023-04-15T18:25:31.992Z,8.35
2023-04-15T18:28:35.792Z,5.80
2023-04-15T18:31:38.150Z,4.70
2023-04-15T18:34:42.838Z,5.47
2023-04-15T18:37:45.359Z,7.60
2023-04-15T18:40:48.152Z,9.98
2023-04-15T18:43:50.581Z,7.30
2023-04-15T18:46:53.185Z,6.80
2023-04-15T18:49:55.634Z,12.13
2023-04-15T18:52:58.280Z,6.45
2023-04-15T18:56:03.009Z,8.48
2023-04-15T18:59:09.724Z,9.45
2023-04-15T19:02:28.771Z,8.55
2023-04-15T19:05:31.465Z,7.25
2023-04-15T19:08:34.041Z,7.45
2023-04-15T19:11:36.998Z,8.60
2023-04-15T19:14:39.340Z,7.12
2023-04-15T19:17:42.019Z,12.02
2023-04-15T19:20:44.471Z,5.30
2023-04-15T19:23:48.201Z,6.03
2023-04-15T19:26:51.208Z,5.40
2023-04-15T19:29:53.997Z,4.75
2023-04-15T19:32:56.418Z,5.70
2023-04-15T19:36:04.451Z,5.90
2023-04-15T19:39:07.306Z,4.82
2023-04-15T19:42:11.045Z,6.25
2023-04-15T19:45:13.659Z,6.53
2023-04-15T19:48:16.806Z,6.45
2023-04-15T19:51:19.315Z,5.30
2023-04-15T19:54:22.797Z,5.50
2023-04-15T19:57:25.342Z,9.13
2023-04-15T20:00:27.994Z,6.35
2023-04-15T20:03:31.221Z,7.32
2023-04-15T20:06:33.832Z,11.07
2023-04-15T20:09:36.544Z,8.65
2023-04-15T20:12:49.545Z,7.45
2023-04-15T20:16:06.045Z,7.68
2023-04-15T20:19:09.396Z,7.47
2023-04-15T20:22:12.015Z,6.55
2023-04-15T20:25:14.535Z,8.70
2023-04-15T20:28:18.894Z,8.55
2023-04-15T20:34:24.354Z,12.02
2023-04-15T20:37:26.782Z,7.00
2023-04-15T20:40:29.494Z,11.38
2023-04-15T20:43:31.908Z,7.35
2023-04-15T20:46:34.660Z,7.40
2023-04-15T20:49:38.802Z,7.28
2023-04-15T20:52:41.716Z,8.35
2023-04-15T20:55:44.645Z,7.70
2023-04-15T20:58:47.187Z,7.87
2023-04-15T21:01:49.738Z,7.82
2023-04-15T21:04:52.481Z,10.32
2023-04-15T21:07:54.856Z,8.02
2023-04-15T21:10:57.503Z,14.73
2023-04-15T21:14:00.080Z,12.13
2023-04-15T21:17:11.060Z,25.65
2023-04-15T21:20:14.099Z,16.08
2023-04-15T21:23:16.772Z,10.77
2023-04-15T21:26:19.178Z,6.62
2023-04-15T21:29:21.817Z,6.12
2023-04-15T21:32:24.236Z,9.45
2023-04-15T21:35:27.177Z,6.25
2023-04-15T21:38:29.691Z,7.72
2023-04-15T21:41:36.677Z,6.82
2023-04-15T21:44:39.037Z,6.20
2023-04-15T21:48:05.697Z,7.40
2023-04-15T21:51:04.456Z,8.55
2023-04-15T21:54:07.065Z,7.93
2023-04-15T21:57:09.402Z,10.10
2023-04-15T22:00:13.433Z,8.82
2023-04-15T22:03:16.505Z,8.65
2023-04-15T22:06:19.040Z,9.82
2023-04-15T22:09:21.697Z,8.75
2023-04-15T22:12:23.990Z,8.70
2023-04-15T22:15:26.982Z,9.75
2023-04-15T22:18:29.310Z,9.68
2023-04-15T22:21:31.970Z,10.38
2023-04-15T22:24:40.797Z,10.88
2023-04-15T22:27:43.977Z,13.45
2023-04-15T22:30:46.556Z,10.77
2023-04-15T22:33:49.316Z,10.50
2023-04-15T22:36:52.705Z,10.85
2023-04-15T22:39:55.517Z,11.73
2023-04-15T22:42:57.899Z,11.68
2023-04-15T22:46:01.181Z,13.70
2023-04-15T22:49:04.175Z,14.75
2023-04-15T22:52:09.061Z,12.82
2023-04-15T22:55:14.883Z,12.80
2023-04-15T22:58:18.431Z,14.67
2023-04-15T23:01:21.230Z,14.45
2023-04-15T23:04:26.879Z,12.77
2023-04-15T23:07:30.385Z,12.02
2023-04-15T23:10:33.268Z,15.20
2023-04-15T23:13:36.163Z,14.23
2023-04-15T23:16:38.989Z,14.77
2023-04-15T23:19:41.397Z,13.80
2023-04-15T23:22:44.243Z,15.23
2023-04-15T23:25:46.785Z,16.40
2023-04-15T23:28:49.426Z,12.90
2023-04-15T23:31:51.824Z,14.40
2023-04-15T23:34:54.557Z,13.62
2023-04-15T23:37:56.968Z,17.77
2023-04-15T23:40:59.602Z,15.40
2023-04-15T23:44:07.087Z,18.02
2023-04-15T23:47:15.776Z,15.20
2023-04-15T23:50:18.328Z,16.20
2023-04-15T23:53:21.085Z,19.27
2023-04-15T23:56:23.446Z,16.17
2023-04-15T23:59:26.142Z,16.85
